sensor_id;sensor_type;location;lat;lon;timestamp;temperature;humidity
18670;DHT22;9464;44.918;9.670;2022-08-21T10:09:22;25.80;99.90
18670;DHT22;9464;44.918;9.670;2022-08-21T10:11:56;25.80;99.90
18670;DHT22;9464;44.918;9.670;2022-08-21T10:14:39;25.80;99.90
18670;DHT22;9464;44.918;9.670;2022-08-21T10:17:15;25.80;99.90
18670;DHT22;9464;44.918;9.670;2022-08-21T10:19:49;25.80;99.90
18670;DHT22;9464;44.918;9.670;2022-08-21T10:22:31;25.80;99.90
18670;DHT22;9464;44.918;9.670;2022-08-21T10:25:09;25.80;99.90
18670;DHT22;9464;44.918;9.670;2022-08-21T10:27:45;25.80;99.90
18670;DHT22;9464;44.918;9.670;2022-08-21T10:30:19;25.80;99.90
18670;DHT22;9464;44.918;9.670;2022-08-21T10:33:15;25.90;99.90
18670;DHT22;9464;44.918;9.670;2022-08-21T10:35:53;25.90;99.90
18670;DHT22;9464;44.918;9.670;2022-08-21T10:38:47;25.90;99.90
18670;DHT22;9464;44.918;9.670;2022-08-21T10:41:50;25.90;99.90
18670;DHT22;9464;44.918;9.670;2022-08-21T10:44:30;26.00;99.90
18670;DHT22;9464;44.918;9.670;2022-08-21T10:47:04;26.00;99.90
18670;DHT22;9464;44.918;9.670;2022-08-21T10:49:39;26.00;99.90
18670;DHT22;9464;44.918;9.670;2022-08-21T10:52:32;26.00;99.90
18670;DHT22;9464;44.918;9.670;2022-08-21T10:55:08;26.10;99.90
18670;DHT22;9464;44.918;9.670;2022-08-21T10:57:42;26.10;99.90
18670;DHT22;9464;44.918;9.670;2022-08-21T11:00:15;26.10;99.90
18670;DHT22;9464;44.918;9.670;2022-08-21T11:02:48;26.10;99.90
18670;DHT22;9464;44.918;9.670;2022-08-21T11:05:20;26.10;99.90
18670;DHT22;9464;44.918;9.670;2022-08-21T11:07:54;26.20;99.90
18670;DHT22;9464;44.918;9.670;2022-08-21T11:10:33;26.20;99.90
18670;DHT22;9464;44.918;9.670;2022-08-21T11:13:12;26.20;99.90
18670;DHT22;9464;44.918;9.670;2022-08-21T11:15:45;26.20;99.90
18670;DHT22;9464;44.918;9.670;2022-08-21T11:18:22;26.20;99.90
18670;DHT22;9464;44.918;9.670;2022-08-21T11:21:01;26.20;99.90
18670;DHT22;9464;44.918;9.670;2022-08-21T11:23:38;26.30;99.90
18670;DHT22;9464;44.918;9.670;2022-08-21T11:26:11;26.20;99.90
18670;DHT22;9464;44.918;9.670;2022-08-21T11:28:48;26.30;99.90
18670;DHT22;9464;44.918;9.670;2022-08-21T11:31:30;26.30;99.90
18670;DHT22;9464;44.918;9.670;2022-08-21T11:34:14;26.40;99.90
18670;DHT22;9464;44.918;9.670;2022-08-21T11:36:51;26.40;99.90
18670;DHT22;9464;44.918;9.670;2022-08-21T11:39:26;26.40;99.90
18670;DHT22;9464;44.918;9.670;2022-08-21T11:42:06;26.40;99.90
18670;DHT22;9464;44.918;9.670;2022-08-21T11:44:43;26.40;99.90
18670;DHT22;9464;44.918;9.670;2022-08-21T11:47:21;26.50;99.90
18670;DHT22;9464;44.918;9.670;2022-08-21T11:50:02;26.40;99.90
18670;DHT22;9464;44.918;9.670;2022-08-21T11:52:56;26.50;99.90
18670;DHT22;9464;44.918;9.670;2022-08-21T11:55:29;26.50;99.90
18670;DHT22;9464;44.918;9.670;2022-08-21T11:58:06;26.50;99.90
18670;DHT22;9464;44.918;9.670;2022-08-21T12:00:45;26.60;99.90
18670;DHT22;9464;44.918;9.670;2022-08-21T12:03:17;26.60;99.90
18670;DHT22;9464;44.918;9.670;2022-08-21T12:05:53;26.60;99.90
18670;DHT22;9464;44.918;9.670;2022-08-21T12:08:30;26.60;99.90
18670;DHT22;9464;44.918;9.670;2022-08-21T12:11:02;26.70;99.90
18670;DHT22;9464;44.918;9.670;2022-08-21T12:13:35;26.70;99.90
18670;DHT22;9464;44.918;9.670;2022-08-21T12:16:12;26.70;99.90
18670;DHT22;9464;44.918;9.670;2022-08-21T12:18:43;26.70;99.90
18670;DHT22;9464;44.918;9.670;2022-08-21T12:21:21;26.80;99.90
18670;DHT22;9464;44.918;9.670;2022-08-21T12:24:03;26.80;99.90
18670;DHT22;9464;44.918;9.670;2022-08-21T12:26:33;26.80;99.90
18670;DHT22;9464;44.918;9.670;2022-08-21T12:29:15;26.80;99.90
18670;DHT22;9464;44.918;9.670;2022-08-21T12:31:50;26.80;99.90
18670;DHT22;9464;44.918;9.670;2022-08-21T12:34:20;26.90;99.90
18670;DHT22;9464;44.918;9.670;2022-08-21T12:36:53;26.90;99.90
18670;DHT22;9464;44.918;9.670;2022-08-21T12:39:25;26.90;99.90
18670;DHT22;9464;44.918;9.670;2022-08-21T12:41:58;27.00;99.90
18670;DHT22;9464;44.918;9.670;2022-08-21T12:44:35;27.00;99.90
18670;DHT22;9464;44.918;9.670;2022-08-21T12:47:14;27.10;99.90
18670;DHT22;9464;44.918;9.670;2022-08-21T12:49:52;27.00;99.90
18670;DHT22;9464;44.918;9.670;2022-08-21T12:52:24;27.00;99.90
18670;DHT22;9464;44.918;9.670;2022-08-21T12:54:52;27.10;99.90
18670;DHT22;9464;44.918;9.670;2022-08-21T12:57:22;27.10;99.90
18670;DHT22;9464;44.918;9.670;2022-08-21T12:59:58;27.10;99.90
18670;DHT22;9464;44.918;9.670;2022-08-21T13:02:29;27.20;99.90
18670;DHT22;9464;44.918;9.670;2022-08-21T13:04:58;27.20;99.90
18670;DHT22;9464;44.918;9.670;2022-08-21T13:07:31;27.30;99.90
18670;DHT22;9464;44.918;9.670;2022-08-21T13:10:03;27.30;99.90
18670;DHT22;9464;44.918;9.670;2022-08-21T13:12:33;27.20;99.90
18670;DHT22;9464;44.918;9.670;2022-08-21T13:15:05;27.30;99.90
18670;DHT22;9464;44.918;9.670;2022-08-21T13:17:41;27.30;99.90
18670;DHT22;9464;44.918;9.670;2022-08-21T13:20:20;27.20;99.90
18670;DHT22;9464;44.918;9.670;2022-08-21T13:22:48;27.20;99.90
18670;DHT22;9464;44.918;9.670;2022-08-21T13:25:19;27.20;99.90
18670;DHT22;9464;44.918;9.670;2022-08-21T13:27:58;27.30;99.90
18670;DHT22;9464;44.918;9.670;2022-08-21T13:30:28;27.30;99.90
18670;DHT22;9464;44.918;9.670;2022-08-21T13:32:59;27.30;99.90
18670;DHT22;9464;44.918;9.670;2022-08-21T13:35:31;27.30;99.90
18670;DHT22;9464;44.918;9.670;2022-08-21T13:38:04;27.40;99.90
18670;DHT22;9464;44.918;9.670;2022-08-21T13:40:44;27.40;99.90
18670;DHT22;9464;44.918;9.670;2022-08-21T13:43:14;27.40;99.90
18670;DHT22;9464;44.918;9.670;2022-08-21T13:45:51;27.50;99.90
18670;DHT22;9464;44.918;9.670;2022-08-21T13:48:20;27.40;99.90
18670;DHT22;9464;44.918;9.670;2022-08-21T13:50:50;27.40;99.90
18670;DHT22;9464;44.918;9.670;2022-08-21T13:53:26;27.50;99.90
18670;DHT22;9464;44.918;9.670;2022-08-21T13:55:56;27.50;99.90
18670;DHT22;9464;44.918;9.670;2022-08-21T13:58:28;27.50;99.90
18670;DHT22;9464;44.918;9.670;2022-08-21T14:00:59;27.50;99.90
18670;DHT22;9464;44.918;9.670;2022-08-21T14:03:35;27.60;99.90
18670;DHT22;9464;44.918;9.670;2022-08-21T14:06:11;27.60;99.90
18670;DHT22;9464;44.918;9.670;2022-08-21T14:08:41;27.60;99.90
18670;DHT22;9464;44.918;9.670;2022-08-21T14:11:11;27.60;99.90
18670;DHT22;9464;44.918;9.670;2022-08-21T14:13:42;27.70;99.90
18670;DHT22;9464;44.918;9.670;2022-08-21T14:16:15;27.70;99.90
18670;DHT22;9464;44.918;9.670;2022-08-21T14:18:50;27.70;99.90
18670;DHT22;9464;44.918;9.670;2022-08-21T14:21:29;27.70;99.90
18670;DHT22;9464;44.918;9.670;2022-08-21T14:24:02;27.70;99.90
18670;DHT22;9464;44.918;9.670;2022-08-21T14:26:31;27.70;99.90
18670;DHT22;9464;44.918;9.670;2022-08-21T14:29:00;27.70;99.90
18670;DHT22;9464;44.918;9.670;2022-08-21T14:31:37;27.70;99.90
18670;DHT22;9464;44.918;9.670;2022-08-21T14:34:11;27.70;99.90
18670;DHT22;9464;44.918;9.670;2022-08-21T14:36:46;27.80;99.90
18670;DHT22;9464;44.918;9.670;2022-08-21T14:39:14;27.80;99.90
18670;DHT22;9464;44.918;9.670;2022-08-21T14:41:44;27.80;99.90
18670;DHT22;9464;44.918;9.670;2022-08-21T14:44:16;27.80;99.90
18670;DHT22;9464;44.918;9.670;2022-08-21T14:46:46;27.80;99.90
18670;DHT22;9464;44.918;9.670;2022-08-21T14:49:23;27.80;99.90
18670;DHT22;9464;44.918;9.670;2022-08-21T14:51:53;27.80;99.90
18670;DHT22;9464;44.918;9.670;2022-08-21T14:54:25;27.80;99.90
18670;DHT22;9464;44.918;9.670;2022-08-21T14:56:59;27.90;99.90
18670;DHT22;9464;44.918;9.670;2022-08-21T14:59:27;27.90;99.90
18670;DHT22;9464;44.918;9.670;2022-08-21T15:01:57;27.90;99.90
18670;DHT22;9464;44.918;9.670;2022-08-21T15:04:25;27.90;99.90
18670;DHT22;9464;44.918;9.670;2022-08-21T15:06:53;27.90;99.90
18670;DHT22;9464;44.918;9.670;2022-08-21T15:09:22;27.90;99.90
18670;DHT22;9464;44.918;9.670;2022-08-21T15:11:51;28.00;99.90
18670;DHT22;9464;44.918;9.670;2022-08-21T15:14:21;28.00;99.90
18670;DHT22;9464;44.918;9.670;2022-08-21T15:16:51;28.00;99.90
18670;DHT22;9464;44.918;9.670;2022-08-21T15:19:20;27.90;99.90
18670;DHT22;9464;44.918;9.670;2022-08-21T15:21:49;27.90;99.90
18670;DHT22;9464;44.918;9.670;2022-08-21T15:24:17;27.90;99.90
18670;DHT22;9464;44.918;9.670;2022-08-21T15:26:46;27.90;99.90
18670;DHT22;9464;44.918;9.670;2022-08-21T15:29:15;27.90;99.90
18670;DHT22;9464;44.918;9.670;2022-08-21T15:31:54;27.90;99.90
18670;DHT22;9464;44.918;9.670;2022-08-21T15:34:24;27.90;99.90
18670;DHT22;9464;44.918;9.670;2022-08-21T15:36:54;27.90;99.90
18670;DHT22;9464;44.918;9.670;2022-08-21T15:39:23;27.90;99.90
18670;DHT22;9464;44.918;9.670;2022-08-21T15:41:57;27.90;99.90
18670;DHT22;9464;44.918;9.670;2022-08-21T15:44:31;27.90;99.90
18670;DHT22;9464;44.918;9.670;2022-08-21T15:47:00;27.90;99.90
18670;DHT22;9464;44.918;9.670;2022-08-21T15:49:30;28.00;99.90
18670;DHT22;9464;44.918;9.670;2022-08-21T15:51:58;28.00;99.90
18670;DHT22;9464;44.918;9.670;2022-08-21T15:54:26;28.00;99.90
18670;DHT22;9464;44.918;9.670;2022-08-21T15:56:54;28.00;99.90
18670;DHT22;9464;44.918;9.670;2022-08-21T15:59:23;28.00;99.90
18670;DHT22;9464;44.918;9.670;2022-08-21T16:01:52;28.00;99.90
18670;DHT22;9464;44.918;9.670;2022-08-21T16:04:22;28.00;99.90
18670;DHT22;9464;44.918;9.670;2022-08-21T16:06:53;28.10;99.90
18670;DHT22;9464;44.918;9.670;2022-08-21T16:09:31;28.10;99.90
18670;DHT22;9464;44.918;9.670;2022-08-21T16:11:59;28.10;99.90
18670;DHT22;9464;44.918;9.670;2022-08-21T16:14:28;28.10;99.90
18670;DHT22;9464;44.918;9.670;2022-08-21T16:16:57;28.10;99.90
18670;DHT22;9464;44.918;9.670;2022-08-21T16:19:27;28.10;99.90
18670;DHT22;9464;44.918;9.670;2022-08-21T16:21:57;28.10;99.90
18670;DHT22;9464;44.918;9.670;2022-08-21T16:24:25;28.10;99.90
18670;DHT22;9464;44.918;9.670;2022-08-21T16:26:55;28.10;99.90
18670;DHT22;9464;44.918;9.670;2022-08-21T16:29:26;28.10;99.90
18670;DHT22;9464;44.918;9.670;2022-08-21T16:32:00;28.10;99.90
18670;DHT22;9464;44.918;9.670;2022-08-21T16:34:28;28.10;99.90
18670;DHT22;9464;44.918;9.670;2022-08-21T16:36:58;28.10;99.90
18670;DHT22;9464;44.918;9.670;2022-08-21T16:39:27;28.10;99.90
18670;DHT22;9464;44.918;9.670;2022-08-21T16:41:55;28.10;99.90
18670;DHT22;9464;44.918;9.670;2022-08-21T16:44:23;28.10;99.90
18670;DHT22;9464;44.918;9.670;2022-08-21T16:46:55;28.10;99.90
18670;DHT22;9464;44.918;9.670;2022-08-21T16:49:24;28.10;99.90
18670;DHT22;9464;44.918;9.670;2022-08-21T16:51:52;28.10;99.90
18670;DHT22;9464;44.918;9.670;2022-08-21T16:54:22;28.10;99.90
18670;DHT22;9464;44.918;9.670;2022-08-21T16:56:50;28.10;99.90
18670;DHT22;9464;44.918;9.670;2022-08-21T16:59:20;28.10;99.90
18670;DHT22;9464;44.918;9.670;2022-08-21T17:01:48;28.10;99.90
18670;DHT22;9464;44.918;9.670;2022-08-21T17:04:17;28.10;99.90
18670;DHT22;9464;44.918;9.670;2022-08-21T17:06:46;28.10;99.90
18670;DHT22;9464;44.918;9.670;2022-08-21T17:09:15;28.10;99.90
18670;DHT22;9464;44.918;9.670;2022-08-21T17:11:46;28.10;99.90
18670;DHT22;9464;44.918;9.670;2022-08-21T17:14:18;28.10;99.90
18670;DHT22;9464;44.918;9.670;2022-08-21T17:16:49;28.10;99.90
18670;DHT22;9464;44.918;9.670;2022-08-21T17:19:19;28.10;99.90
18670;DHT22;9464;44.918;9.670;2022-08-21T17:21:48;28.10;99.90
18670;DHT22;9464;44.918;9.670;2022-08-21T17:24:16;28.10;99.90
18670;DHT22;9464;44.918;9.670;2022-08-21T17:26:46;28.10;99.90
18670;DHT22;9464;44.918;9.670;2022-08-21T17:29:15;28.10;99.90
18670;DHT22;9464;44.918;9.670;2022-08-21T17:31:44;28.10;99.90
18670;DHT22;9464;44.918;9.670;2022-08-21T17:34:13;28.00;99.90
18670;DHT22;9464;44.918;9.670;2022-08-21T17:36:41;28.00;99.90
18670;DHT22;9464;44.918;9.670;2022-08-21T17:39:09;28.00;99.90
18670;DHT22;9464;44.918;9.670;2022-08-21T17:41:48;28.00;99.90
18670;DHT22;9464;44.918;9.670;2022-08-21T17:44:24;28.00;99.90
18670;DHT22;9464;44.918;9.670;2022-08-21T17:46:52;28.00;99.90
18670;DHT22;9464;44.918;9.670;2022-08-21T17:49:20;27.90;99.90
18670;DHT22;9464;44.918;9.670;2022-08-21T17:51:48;27.90;99.90
18670;DHT22;9464;44.918;9.670;2022-08-21T17:54:17;27.90;99.90
18670;DHT22;9464;44.918;9.670;2022-08-21T17:56:45;27.90;99.90
18670;DHT22;9464;44.918;9.670;2022-08-21T17:59:14;27.90;99.90
18670;DHT22;9464;44.918;9.670;2022-08-21T18:01:43;27.90;99.90
18670;DHT22;9464;44.918;9.670;2022-08-21T18:04:13;27.90;99.90
18670;DHT22;9464;44.918;9.670;2022-08-21T18:06:42;27.90;99.90
18670;DHT22;9464;44.918;9.670;2022-08-21T18:09:11;27.80;99.90
18670;DHT22;9464;44.918;9.670;2022-08-21T18:11:40;27.80;99.90
18670;DHT22;9464;44.918;9.670;2022-08-21T18:14:10;27.80;99.90
18670;DHT22;9464;44.918;9.670;2022-08-21T18:16:39;27.80;99.90
18670;DHT22;9464;44.918;9.670;2022-08-21T18:19:10;27.80;99.90
18670;DHT22;9464;44.918;9.670;2022-08-21T18:21:41;27.70;99.90
18670;DHT22;9464;44.918;9.670;2022-08-21T18:24:09;27.70;99.90
18670;DHT22;9464;44.918;9.670;2022-08-21T18:26:38;27.70;99.90
18670;DHT22;9464;44.918;9.670;2022-08-21T18:29:10;27.70;99.90
18670;DHT22;9464;44.918;9.670;2022-08-21T18:31:40;27.60;99.90
18670;DHT22;9464;44.918;9.670;2022-08-21T18:34:21;27.60;99.90
18670;DHT22;9464;44.918;9.670;2022-08-21T18:36:50;27.60;99.90
18670;DHT22;9464;44.918;9.670;2022-08-21T18:39:19;27.60;99.90
18670;DHT22;9464;44.918;9.670;2022-08-21T18:42:07;27.60;99.90
18670;DHT22;9464;44.918;9.670;2022-08-21T18:44:36;27.60;99.90
18670;DHT22;9464;44.918;9.670;2022-08-21T18:47:08;27.50;99.90
18670;DHT22;9464;44.918;9.670;2022-08-21T18:49:38;27.50;99.90
18670;DHT22;9464;44.918;9.670;2022-08-21T18:52:07;27.40;99.90
18670;DHT22;9464;44.918;9.670;2022-08-21T18:54:35;27.40;99.90
18670;DHT22;9464;44.918;9.670;2022-08-21T18:57:08;27.40;99.90
18670;DHT22;9464;44.918;9.670;2022-08-21T18:59:38;27.40;99.90
18670;DHT22;9464;44.918;9.670;2022-08-21T19:02:09;27.40;99.90
18670;DHT22;9464;44.918;9.670;2022-08-21T19:04:38;27.40;99.90
18670;DHT22;9464;44.918;9.670;2022-08-21T19:07:11;27.30;99.90
18670;DHT22;9464;44.918;9.670;2022-08-21T19:09:41;27.30;99.90
18670;DHT22;9464;44.918;9.670;2022-08-21T19:12:30;27.30;99.90
18670;DHT22;9464;44.918;9.670;2022-08-21T19:14:59;27.20;99.90
18670;DHT22;9464;44.918;9.670;2022-08-21T19:17:30;27.20;99.90
18670;DHT22;9464;44.918;9.670;2022-08-21T19:20:03;27.20;99.90
18670;DHT22;9464;44.918;9.670;2022-08-21T19:22:45;27.10;99.90
18670;DHT22;9464;44.918;9.670;2022-08-21T19:25:19;27.10;99.90
18670;DHT22;9464;44.918;9.670;2022-08-21T19:28:00;27.00;99.90
18670;DHT22;9464;44.918;9.670;2022-08-21T19:30:29;27.00;99.90
18670;DHT22;9464;44.918;9.670;2022-08-21T19:32:59;27.00;99.90
18670;DHT22;9464;44.918;9.670;2022-08-21T19:35:27;27.00;99.90
18670;DHT22;9464;44.918;9.670;2022-08-21T19:37:55;26.90;99.90
18670;DHT22;9464;44.918;9.670;2022-08-21T19:40:23;26.90;99.90
18670;DHT22;9464;44.918;9.670;2022-08-21T19:42:52;26.90;99.90
18670;DHT22;9464;44.918;9.670;2022-08-21T19:45:20;26.90;99.90
18670;DHT22;9464;44.918;9.670;2022-08-21T19:48:09;26.90;99.90
18670;DHT22;9464;44.918;9.670;2022-08-21T19:50:39;26.90;99.90
18670;DHT22;9464;44.918;9.670;2022-08-21T19:53:07;26.80;99.90
18670;DHT22;9464;44.918;9.670;2022-08-21T19:55:41;26.70;99.90
18670;DHT22;9464;44.918;9.670;2022-08-21T19:58:21;26.70;99.90
18670;DHT22;9464;44.918;9.670;2022-08-21T20:00:50;26.70;99.90
18670;DHT22;9464;44.918;9.670;2022-08-21T20:03:20;26.70;99.90
18670;DHT22;9464;44.918;9.670;2022-08-21T20:05:48;26.60;99.90
18670;DHT22;9464;44.918;9.670;2022-08-21T20:08:19;26.60;99.90
18670;DHT22;9464;44.918;9.670;2022-08-21T20:10:55;26.60;99.90
18670;DHT22;9464;44.918;9.670;2022-08-21T20:13:24;26.60;99.90
18670;DHT22;9464;44.918;9.670;2022-08-21T20:15:53;26.50;99.90
18670;DHT22;9464;44.918;9.670;2022-08-21T20:18:22;26.50;99.90
18670;DHT22;9464;44.918;9.670;2022-08-21T20:20:53;26.40;99.90
18670;DHT22;9464;44.918;9.670;2022-08-21T20:23:22;26.40;99.90
18670;DHT22;9464;44.918;9.670;2022-08-21T20:25:56;26.40;99.90
18670;DHT22;9464;44.918;9.670;2022-08-21T20:28:25;26.30;99.90
18670;DHT22;9464;44.918;9.670;2022-08-21T20:30:54;26.30;99.90
18670;DHT22;9464;44.918;9.670;2022-08-21T20:33:23;26.20;99.90
18670;DHT22;9464;44.918;9.670;2022-08-21T20:35:52;26.30;99.90
18670;DHT22;9464;44.918;9.670;2022-08-21T20:38:21;26.30;99.90
18670;DHT22;9464;44.918;9.670;2022-08-21T20:40:52;26.20;99.90
18670;DHT22;9464;44.918;9.670;2022-08-21T20:43:21;26.20;99.90
18670;DHT22;9464;44.918;9.670;2022-08-21T20:45:50;26.20;99.90
18670;DHT22;9464;44.918;9.670;2022-08-21T20:48:25;26.20;99.90
18670;DHT22;9464;44.918;9.670;2022-08-21T20:51:09;26.30;99.90
18670;DHT22;9464;44.918;9.670;2022-08-21T20:53:45;26.20;99.90
18670;DHT22;9464;44.918;9.670;2022-08-21T20:56:24;26.20;99.90
18670;DHT22;9464;44.918;9.670;2022-08-21T20:59:00;26.10;99.90
18670;DHT22;9464;44.918;9.670;2022-08-21T21:01:32;26.10;99.90
18670;DHT22;9464;44.918;9.670;2022-08-21T21:04:05;26.10;99.90
18670;DHT22;9464;44.918;9.670;2022-08-21T21:06:45;26.10;99.90
18670;DHT22;9464;44.918;9.670;2022-08-21T21:09:22;26.10;99.90
18670;DHT22;9464;44.918;9.670;2022-08-21T21:11:59;26.10;99.90
18670;DHT22;9464;44.918;9.670;2022-08-21T21:14:36;26.10;99.90
18670;DHT22;9464;44.918;9.670;2022-08-21T21:17:11;26.10;99.90
18670;DHT22;9464;44.918;9.670;2022-08-21T21:19:46;26.10;99.90
18670;DHT22;9464;44.918;9.670;2022-08-21T21:22:19;26.10;99.90
18670;DHT22;9464;44.918;9.670;2022-08-21T21:24:55;26.10;99.90
18670;DHT22;9464;44.918;9.670;2022-08-21T21:27:30;26.00;99.90
18670;DHT22;9464;44.918;9.670;2022-08-21T21:30:21;25.90;99.90
18670;DHT22;9464;44.918;9.670;2022-08-21T21:32:51;25.90;99.90
18670;DHT22;9464;44.918;9.670;2022-08-21T21:35:26;25.80;99.90
18670;DHT22;9464;44.918;9.670;2022-08-21T21:38:21;25.90;99.90
18670;DHT22;9464;44.918;9.670;2022-08-21T21:41:02;25.80;99.90
18670;DHT22;9464;44.918;9.670;2022-08-21T21:43:43;25.80;99.90
18670;DHT22;9464;44.918;9.670;2022-08-21T21:46:24;25.80;99.90
18670;DHT22;9464;44.918;9.670;2022-08-21T21:49:04;25.80;99.90
18670;DHT22;9464;44.918;9.670;2022-08-21T21:51:50;25.80;99.90
18670;DHT22;9464;44.918;9.670;2022-08-21T21:54:44;25.90;99.90
18670;DHT22;9464;44.918;9.670;2022-08-21T21:57:27;25.80;99.90
18670;DHT22;9464;44.918;9.670;2022-08-21T22:00:04;25.80;99.90
18670;DHT22;9464;44.918;9.670;2022-08-21T22:02:42;25.80;99.90
18670;DHT22;9464;44.918;9.670;2022-08-21T22:05:18;25.80;99.90
18670;DHT22;9464;44.918;9.670;2022-08-21T22:07:56;25.80;99.90
18670;DHT22;9464;44.918;9.670;2022-08-21T22:10:30;25.80;99.90
18670;DHT22;9464;44.918;9.670;2022-08-21T22:13:13;25.80;99.90
18670;DHT22;9464;44.918;9.670;2022-08-21T22:16:03;25.70;99.90
18670;DHT22;9464;44.918;9.670;2022-08-21T22:18:35;25.70;99.90
18670;DHT22;9464;44.918;9.670;2022-08-21T22:21:15;25.60;99.90
18670;DHT22;9464;44.918;9.670;2022-08-21T22:23:54;25.60;99.90
18670;DHT22;9464;44.918;9.670;2022-08-21T22:26:27;25.50;99.90
18670;DHT22;9464;44.918;9.670;2022-08-21T22:29:00;25.50;99.90
18670;DHT22;9464;44.918;9.670;2022-08-21T22:31:31;25.50;99.90
18670;DHT22;9464;44.918;9.670;2022-08-21T22:34:08;25.50;99.90
18670;DHT22;9464;44.918;9.670;2022-08-21T22:36:46;25.50;99.90
18670;DHT22;9464;44.918;9.670;2022-08-21T22:39:26;25.40;99.90
18670;DHT22;9464;44.918;9.670;2022-08-21T22:42:09;25.40;99.90
18670;DHT22;9464;44.918;9.670;2022-08-21T22:44:50;25.40;99.90
18670;DHT22;9464;44.918;9.670;2022-08-21T22:47:20;25.40;99.90
18670;DHT22;9464;44.918;9.670;2022-08-21T22:49:53;25.40;99.90
18670;DHT22;9464;44.918;9.670;2022-08-21T22:52:31;25.40;99.90
18670;DHT22;9464;44.918;9.670;2022-08-21T22:55:16;25.40;99.90
18670;DHT22;9464;44.918;9.670;2022-08-21T22:58:01;25.30;99.90
18670;DHT22;9464;44.918;9.670;2022-08-21T23:00:42;25.30;99.90
18670;DHT22;9464;44.918;9.670;2022-08-21T23:03:19;25.30;99.90
18670;DHT22;9464;44.918;9.670;2022-08-21T23:05:49;25.20;99.90
18670;DHT22;9464;44.918;9.670;2022-08-21T23:08:26;25.20;99.90
18670;DHT22;9464;44.918;9.670;2022-08-21T23:11:01;25.20;99.90
18670;DHT22;9464;44.918;9.670;2022-08-21T23:13:39;25.20;99.90
18670;DHT22;9464;44.918;9.670;2022-08-21T23:16:33;25.20;99.90
18670;DHT22;9464;44.918;9.670;2022-08-21T23:19:20;25.20;99.90
18670;DHT22;9464;44.918;9.670;2022-08-21T23:21:55;25.20;99.90
18670;DHT22;9464;44.918;9.670;2022-08-21T23:24:41;25.20;99.90
18670;DHT22;9464;44.918;9.670;2022-08-21T23:27:24;25.20;99.90
18670;DHT22;9464;44.918;9.670;2022-08-21T23:30:17;25.20;99.90
18670;DHT22;9464;44.918;9.670;2022-08-21T23:33:16;25.20;99.90
18670;DHT22;9464;44.918;9.670;2022-08-21T23:35:54;25.20;99.90
18670;DHT22;9464;44.918;9.670;2022-08-21T23:38:56;25.20;99.90
18670;DHT22;9464;44.918;9.670;2022-08-21T23:41:40;25.20;99.90
18670;DHT22;9464;44.918;9.670;2022-08-21T23:44:31;25.20;99.90
18670;DHT22;9464;44.918;9.670;2022-08-21T23:47:33;25.20;99.90
18670;DHT22;9464;44.918;9.670;2022-08-21T23:50:10;25.20;99.90
18670;DHT22;9464;44.918;9.670;2022-08-21T23:52:48;25.10;99.90
18670;DHT22;9464;44.918;9.670;2022-08-21T23:55:31;25.10;99.90
18670;DHT22;9464;44.918;9.670;2022-08-21T23:58:11;25.10;99.90
